Time;durP1;ratioP1;P1;durP2;ratioP2;P2;SDS_P1;SDS_P2;PMS_P1;PMS_P2;Temp;Humidity;BMP_temperature;BMP_pressure;BME280_temperature;BME280_humidity;BME280_pressure;Samples;Min_cycle;Max_cycle;Signal;HPM_P1;HPM_P2
2024/02/15 00:00:37;;;;;;;;;;;;;;;19.52;48.74;101227.69;2066016;28;6486;-67
2024/02/15 00:01:38;;;;;;;;;;;;;;;19.53;48.72;101237.03;2070755;28;1613;-67
2024/02/15 00:02:39;;;;;;;;;;;;;;;19.53;48.54;101234.91;2069134;28;1633;-66
2024/02/15 00:03:59;;;;;;;;;;;;;;;19.52;48.67;101236.28;2069303;28;1609;-67
2024/02/15 00:05:01;;;;;;;;;;;;;;;19.52;48.68;101236.28;2069780;28;2168;-67
2024/02/15 00:06:02;;;;;;;;;;;;;;;19.52;48.54;101236.28;2069210;28;1605;-67
2024/02/15 00:07:04;;;;;;;;;;;;;;;19.51;48.66;101231.91;2070919;28;1918;-67
2024/02/15 00:08:06;;;;;;;;;;;;;;;19.51;48.56;101234.78;2070028;28;2224;-67
2024/02/15 00:09:07;;;;;;;;;;;;;;;19.52;48.56;101235.56;2070476;28;2134;-66
2024/02/15 00:10:08;;;;;;;;;;;;;;;19.51;48.53;101234.78;2068528;28;2273;-67
2024/02/15 00:11:10;;;;;;;;;;;;;;;19.51;48.67;101234.03;2070019;28;1641;-68
2024/02/15 00:12:12;;;;;;;;;;;;;;;19.52;48.71;101236.28;2071102;28;1637;-67
2024/02/15 00:13:14;;;;;;;;;;;;;;;19.50;48.71;101230.44;2069179;28;2151;-67
2024/02/15 00:14:16;;;;;;;;;;;;;;;19.49;48.63;101243.28;2078558;28;2000;-67
2024/02/15 00:15:19;;;;;;;;;;;;;;;19.50;48.74;101230.44;2078157;28;2044;-67
2024/02/15 00:16:21;;;;;;;;;;;;;;;19.50;48.64;101244.78;2068806;28;2043;-67
2024/02/15 00:17:22;;;;;;;;;;;;;;;19.50;48.71;101241.94;2071891;28;2167;-67
2024/02/15 00:18:24;;;;;;;;;;;;;;;19.50;48.64;101238.31;2070649;28;1648;-66
2024/02/15 00:19:25;;;;;;;;;;;;;;;19.50;48.60;101247.66;2067263;28;2254;-67
2024/02/15 00:20:27;;;;;;;;;;;;;;;19.49;48.70;101234.66;2065929;28;2056;-67
2024/02/15 00:21:28;;;;;;;;;;;;;;;19.50;48.61;101238.31;2070587;28;1703;-67
2024/02/15 00:22:30;;;;;;;;;;;;;;;19.50;48.62;101238.31;2066887;28;1772;-66
2024/02/15 00:23:32;;;;;;;;;;;;;;;19.49;48.69;101243.28;2072377;28;1744;-67
2024/02/15 00:24:36;;;;;;;;;;;;;;;19.49;48.56;101234.66;2070506;28;2145;-67
2024/02/15 00:25:37;;;;;;;;;;;;;;;19.48;48.67;101238.94;2068186;28;2187;-67
2024/02/15 00:26:38;;;;;;;;;;;;;;;19.48;48.70;101236.06;2069850;28;2049;-67
2024/02/15 00:27:40;;;;;;;;;;;;;;;19.47;48.69;101228.84;2070024;28;1589;-67
2024/02/15 00:28:42;;;;;;;;;;;;;;;19.48;48.75;101236.06;2066904;28;2150;-66
2024/02/15 00:29:43;;;;;;;;;;;;;;;19.48;48.79;101233.19;2068735;28;2127;-67
2024/02/15 00:30:45;;;;;;;;;;;;;;;19.47;48.68;101234.59;2069696;28;6282;-67
2024/02/15 00:31:46;;;;;;;;;;;;;;;19.48;48.73;101236.06;2068147;28;2066;-67
2024/02/15 00:32:48;;;;;;;;;;;;;;;19.48;48.71;101236.06;2070915;28;1664;-68
2024/02/15 00:33:50;;;;;;;;;;;;;;;19.48;48.72;101226.72;2071179;28;1737;-68
2024/02/15 00:34:53;;;;;;;;;;;;;;;19.48;48.73;101224.56;2069525;28;2119;-67
2024/02/15 00:35:55;;;;;;;;;;;;;;;19.47;48.70;101237.47;2071151;28;1666;-66
2024/02/15 00:36:56;;;;;;;;;;;;;;;19.47;48.72;101228.84;2071247;28;1867;-67
2024/02/15 00:37:57;;;;;;;;;;;;;;;19.47;48.75;101240.31;2070931;28;1621;-67
2024/02/15 00:38:59;;;;;;;;;;;;;;;19.46;48.61;101239.56;2069913;28;2264;-67
2024/02/15 00:40:01;;;;;;;;;;;;;;;19.46;48.77;101233.06;2072163;28;1680;-67
2024/02/15 00:41:04;;;;;;;;;;;;;;;19.46;48.62;101238.81;2071085;28;1676;-67
2024/02/15 00:42:08;;;;;;;;;;;;;;;19.46;48.72;101238.81;2067893;28;2122;-66
2024/02/15 00:43:10;;;;;;;;;;;;;;;19.45;48.71;101237.34;2069760;28;1629;-67
2024/02/15 00:44:11;;;;;;;;;;;;;;;19.45;48.64;101231.59;2068335;28;2114;-67
2024/02/15 00:45:13;;;;;;;;;;;;;;;19.47;48.72;101243.19;2067366;28;2050;-67
2024/02/15 00:46:17;;;;;;;;;;;;;;;19.45;48.57;101237.34;2068329;28;1649;-67
2024/02/15 00:47:20;;;;;;;;;;;;;;;19.46;48.65;101238.81;2069312;28;1717;-67
2024/02/15 00:48:23;;;;;;;;;;;;;;;19.45;48.62;101235.22;2068087;28;1923;-67
2024/02/15 00:49:27;;;;;;;;;;;;;;;19.47;48.63;101243.19;2071633;28;2098;-67
2024/02/15 00:50:29;;;;;;;;;;;;;;;19.45;48.69;101243.81;2070362;28;1621;-66
2024/02/15 00:51:31;;;;;;;;;;;;;;;19.45;48.60;101240.22;2068019;28;1768;-67
2024/02/15 00:52:32;;;;;;;;;;;;;;;19.44;48.68;101239.44;2068582;28;2054;-67
2024/02/15 00:53:34;;;;;;;;;;;;;;;19.45;48.71;101243.09;2067807;28;2070;-67
2024/02/15 00:54:35;;;;;;;;;;;;;;;19.45;48.65;101245.97;2070604;28;2102;-67
2024/02/15 00:55:37;;;;;;;;;;;;;;;19.44;48.53;101242.31;2067166;28;2223;-66
2024/02/15 00:56:38;;;;;;;;;;;;;;;19.44;48.55;101236.56;2069759;28;2043;-67
2024/02/15 00:57:40;;;;;;;;;;;;;;;19.43;48.69;101237.22;2070127;28;2007;-67
2024/02/15 00:58:41;;;;;;;;;;;;;;;19.43;48.74;101242.97;2068046;28;1891;-67
2024/02/15 00:59:43;;;;;;;;;;;;;;;19.44;48.68;101247.31;2069217;28;2139;-67
2024/02/15 01:00:45;;;;;;;;;;;;;;;19.44;48.75;101241.56;2070558;28;7047;-67
2024/02/15 01:01:48;;;;;;;;;;;;;;;19.43;48.77;101237.97;2069590;28;2097;-67
2024/02/15 01:02:49;;;;;;;;;;;;;;;19.44;48.66;101241.56;2068419;28;2018;-67
2024/02/15 01:03:51;;;;;;;;;;;;;;;19.43;48.69;101240.09;2068062;28;1957;-66
2024/02/15 01:04:53;;;;;;;;;;;;;;;19.43;48.77;101237.97;2069973;28;2094;-67
2024/02/15 01:05:54;;;;;;;;;;;;;;;19.43;48.69;101240.84;2071339;28;1866;-66
2024/02/15 01:06:56;;;;;;;;;;;;;;;19.42;48.70;101239.34;2068574;28;2030;-66
2024/02/15 01:07:57;;;;;;;;;;;;;;;19.42;48.66;101233.59;2071287;28;1859;-67
2024/02/15 01:09:01;;;;;;;;;;;;;;;19.43;48.79;101245.84;2069067;28;2110;-67
2024/02/15 01:10:03;;;;;;;;;;;;;;;19.43;48.67;101240.09;2070239;28;1918;-67
2024/02/15 01:11:06;;;;;;;;;;;;;;;19.42;48.67;101239.34;2068344;28;1903;-67
2024/02/15 01:12:07;;;;;;;;;;;;;;;19.42;48.71;101239.34;2069233;28;2098;-67
2024/02/15 01:13:09;;;;;;;;;;;;;;;19.42;48.68;101232.84;2067014;28;2411;-67
2024/02/15 01:14:10;;;;;;;;;;;;;;;19.42;48.67;101238.59;2072558;28;1957;-67
2024/02/15 01:15:12;;;;;;;;;;;;;;;19.42;48.61;101236.47;2072097;28;2145;-67
2024/02/15 01:16:13;;;;;;;;;;;;;;;19.41;48.79;101234.22;2069253;28;1578;-66
2024/02/15 01:17:15;;;;;;;;;;;;;;;19.42;48.73;101238.59;2070939;28;2071;-66
2024/02/15 01:18:17;;;;;;;;;;;;;;;19.42;48.81;101235.72;2068877;28;1648;-67
2024/02/15 01:19:18;;;;;;;;;;;;;;;19.41;48.61;101242.84;2070763;28;2144;-66
2024/02/15 01:20:21;;;;;;;;;;;;;;;19.42;48.79;101233.59;2069551;28;2089;-67
2024/02/15 01:21:22;;;;;;;;;;;;;;;19.41;48.71;101237.09;2068742;28;1949;-66
2024/02/15 01:22:26;;;;;;;;;;;;;;;19.41;48.63;101237.84;2069359;28;2200;-67
2024/02/15 01:23:28;;;;;;;;;;;;;;;19.41;48.66;101237.09;2070157;28;1665;-67
2024/02/15 01:24:30;;;;;;;;;;;;;;;19.41;48.75;101231.38;2068652;28;2122;-67
2024/02/15 01:25:32;;;;;;;;;;;;;;;19.40;48.76;101232.72;2066880;28;1659;-67
2024/02/15 01:26:34;;;;;;;;;;;;;;;19.39;48.69;101228.38;2069667;28;1625;-67
2024/02/15 01:27:35;;;;;;;;;;;;;;;19.40;48.78;101230.63;2068391;28;2215;-67
2024/02/15 01:28:37;;;;;;;;;;;;;;;19.40;48.69;101229.84;2068464;28;2010;-67
2024/02/15 01:29:38;;;;;;;;;;;;;;;19.39;48.73;101231.97;2069432;28;2173;-67
2024/02/15 01:30:40;;;;;;;;;;;;;;;19.39;48.75;101228.38;2068799;28;6184;-67
2024/02/15 01:31:42;;;;;;;;;;;;;;;19.39;48.82;101229.13;2068454;28;2160;-67
2024/02/15 01:32:43;;;;;;;;;;;;;;;19.40;48.74;101229.84;2068203;28;2105;-67
2024/02/15 01:33:45;;;;;;;;;;;;;;;19.39;48.79;101237.00;2069164;28;1669;-67
2024/02/15 01:34:47;;;;;;;;;;;;;;;19.38;48.73;101233.38;2068452;28;2205;-66
2024/02/15 01:35:48;;;;;;;;;;;;;;;19.39;48.76;101231.97;2067238;28;2032;-67
2024/02/15 01:36:50;;;;;;;;;;;;;;;19.40;48.64;101229.84;2069525;28;1806;-67
2024/02/15 01:37:52;;;;;;;;;;;;;;;19.39;48.76;101229.13;2070597;28;2397;-67
2024/02/15 01:38:53;;;;;;;;;;;;;;;19.37;48.75;101229.00;2067489;28;2078;-67
2024/02/15 01:39:54;;;;;;;;;;;;;;;19.39;48.83;101231.25;2070113;28;1918;-66
2024/02/15 01:40:56;;;;;;;;;;;;;;;19.38;48.63;101221.88;2070051;28;1644;-67
2024/02/15 01:41:58;;;;;;;;;;;;;;;19.37;48.74;101226.13;2068671;28;2225;-67
2024/02/15 01:43:00;;;;;;;;;;;;;;;19.38;48.77;101227.63;2070050;28;2097;-66
2024/02/15 01:44:02;;;;;;;;;;;;;;;19.38;48.78;101233.38;2070806;28;1739;-67
2024/02/15 01:45:04;;;;;;;;;;;;;;;19.38;48.73;101227.63;2067657;28;2192;-67
2024/02/15 01:46:09;;;;;;;;;;;;;;;19.38;48.81;101229.75;2069684;28;2478;-66
2024/02/15 01:47:11;;;;;;;;;;;;;;;19.36;48.85;101224.66;2068392;28;2173;-67
2024/02/15 01:48:13;;;;;;;;;;;;;;;19.36;48.73;101216.03;2070189;28;1648;-67
2024/02/15 01:49:15;;;;;;;;;;;;;;;19.37;48.79;101228.25;2069897;28;1918;-67
2024/02/15 01:50:17;;;;;;;;;;;;;;;19.37;48.82;101219.63;2069869;28;2359;-67
2024/02/15 01:51:18;;;;;;;;;;;;;;;19.35;48.83;101219.53;2069608;28;1925;-68
2024/02/15 01:52:20;;;;;;;;;;;;;;;19.36;48.68;101218.16;2065949;28;2090;-67
2024/02/15 01:53:22;;;;;;;;;;;;;;;19.35;48.73;101211.66;2067454;28;2129;-68
2024/02/15 01:54:23;;;;;;;;;;;;;;;19.36;48.81;101215.28;2070537;28;2066;-68
2024/02/15 01:55:25;;;;;;;;;;;;;;;19.36;48.87;101218.16;2071227;28;2494;-67
2024/02/15 01:56:27;;;;;;;;;;;;;;;19.36;48.79;101218.16;2069738;28;1841;-67
2024/02/15 01:57:29;;;;;;;;;;;;;;;19.36;48.86;101213.16;2068614;28;2039;-67
2024/02/15 01:58:32;;;;;;;;;;;;;;;19.35;48.71;101219.53;2067371;28;2405;-67
2024/02/15 01:59:33;;;;;;;;;;;;;;;19.36;48.82;101218.16;2068578;28;1580;-66
2024/02/15 02:00:36;;;;;;;;;;;;;;;19.35;48.84;101208.03;2062980;28;6107;-66
2024/02/15 02:01:38;;;;;;;;;;;;;;;19.36;48.77;101212.41;2062398;28;1674;-67
2024/02/15 02:02:41;;;;;;;;;;;;;;;19.35;48.73;101208.03;2060817;28;2219;-66
2024/02/15 02:03:43;;;;;;;;;;;;;;;19.34;48.81;101210.16;2059503;28;2016;-67
2024/02/15 02:04:45;;;;;;;;;;;;;;;19.35;48.77;101208.03;2058205;28;2158;-67
2024/02/15 02:05:47;;;;;;;;;;;;;;;19.35;48.74;101208.03;2062510;28;1720;-67
2024/02/15 02:06:48;;;;;;;;;;;;;;;19.34;48.80;101201.56;2061720;28;1710;-67
2024/02/15 02:07:50;;;;;;;;;;;;;;;19.34;48.80;101203.69;2058606;28;1927;-67
2024/02/15 02:08:51;;;;;;;;;;;;;;;19.35;48.72;101208.03;2059238;28;2199;-66
2024/02/15 02:09:52;;;;;;;;;;;;;;;19.34;48.74;101209.44;2058535;28;1670;-67
2024/02/15 02:10:54;;;;;;;;;;;;;;;19.34;48.76;101209.44;2059019;28;2142;-67
2024/02/15 02:11:55;;;;;;;;;;;;;;;19.33;48.73;101208.66;2057641;28;1813;-67
2024/02/15 02:12:57;;;;;;;;;;;;;;;19.34;48.89;101206.56;2058440;28;2114;-67
2024/02/15 02:13:58;;;;;;;;;;;;;;;19.34;48.70;101209.44;2061613;28;1623;-67
2024/02/15 02:14:59;;;;;;;;;;;;;;;19.34;48.64;101215.16;2060738;28;2280;-67
2024/02/15 02:16:01;;;;;;;;;;;;;;;19.33;48.87;101214.41;2060109;28;2154;-67
2024/02/15 02:17:13;;;;;;;;;;;;;;;19.33;48.79;101214.41;2061452;28;1895;-67
2024/02/15 02:18:14;;;;;;;;;;;;;;;19.33;48.89;101208.66;2061259;28;2026;-67
2024/02/15 02:19:17;;;;;;;;;;;;;;;19.33;48.79;101208.66;2060786;28;2137;-67
2024/02/15 02:20:19;;;;;;;;;;;;;;;19.33;48.78;101211.53;2061341;28;2062;-66
2024/02/15 02:21:20;;;;;;;;;;;;;;;19.32;48.87;101210.06;2058937;28;1737;-67
2024/02/15 02:22:22;;;;;;;;;;;;;;;19.32;48.77;101207.19;2060340;28;2128;-67
2024/02/15 02:23:26;;;;;;;;;;;;;;;19.33;48.77;101205.03;2060728;28;2055;-67
2024/02/15 02:24:28;;;;;;;;;;;;;;;19.32;48.83;101207.19;2061768;28;1637;-67
2024/02/15 02:25:29;;;;;;;;;;;;;;;19.33;48.77;101207.91;2062831;28;1583;-66
2024/02/15 02:26:31;;;;;;;;;;;;;;;19.32;48.73;101207.19;2061566;28;1630;-67
2024/02/15 02:27:32;;;;;;;;;;;;;;;19.33;48.88;101213.66;2060631;28;2019;-67
2024/02/15 02:28:34;;;;;;;;;;;;;;;19.31;48.68;101204.94;2058390;28;2024;-67
2024/02/15 02:29:35;;;;;;;;;;;;;;;19.31;48.77;101205.69;2059467;28;2042;-67
2024/02/15 02:30:37;;;;;;;;;;;;;;;19.31;48.80;101208.56;2062853;28;5994;-67
2024/02/15 02:31:38;;;;;;;;;;;;;;;19.32;48.80;101206.44;2067137;28;1663;-67
2024/02/15 02:32:40;;;;;;;;;;;;;;;19.32;48.92;101215.06;2068979;28;2165;-67
2024/02/15 02:33:46;;;;;;;;;;;;;;;19.32;48.90;101212.19;2069296;28;2068;-66
2024/02/15 02:34:48;;;;;;;;;;;;;;;19.32;48.84;101212.19;2067550;28;2201;-67
2024/02/15 02:35:50;;;;;;;;;;;;;;;19.31;48.87;101211.44;2067019;28;2073;-67
2024/02/15 02:36:51;;;;;;;;;;;;;;;19.31;48.77;101210.66;2067925;28;1642;-67
2024/02/15 02:37:53;;;;;;;;;;;;;;;19.31;48.82;101205.69;2069235;28;2012;-66
2024/02/15 02:38:55;;;;;;;;;;;;;;;19.31;48.84;101204.94;2070499;28;1697;-67
2024/02/15 02:39:56;;;;;;;;;;;;;;;19.31;48.90;101204.94;2067375;28;1686;-67
2024/02/15 02:40:58;;;;;;;;;;;;;;;19.31;48.81;101219.28;2070822;28;1705;-67
2024/02/15 02:41:59;;;;;;;;;;;;;;;19.30;48.86;101203.44;2067141;28;2006;-67
2024/02/15 02:43:01;;;;;;;;;;;;;;;19.30;48.91;101212.81;2070061;28;2280;-67
2024/02/15 02:44:02;;;;;;;;;;;;;;;19.31;48.84;101207.81;2067512;28;2161;-67
2024/02/15 02:45:04;;;;;;;;;;;;;;;19.31;48.96;101214.31;2070289;28;1697;-67
2024/02/15 02:46:06;;;;;;;;;;;;;;;19.29;48.88;101213.44;2068386;28;2364;-67
2024/02/15 02:47:08;;;;;;;;;;;;;;;19.31;48.88;101210.66;2068081;28;1728;-67
2024/02/15 02:48:09;;;;;;;;;;;;;;;19.30;48.79;101203.44;2067561;28;1741;-67
2024/02/15 02:49:11;;;;;;;;;;;;;;;19.30;48.91;101203.44;2070327;28;2136;-67
2024/02/15 02:50:13;;;;;;;;;;;;;;;19.30;48.77;101200.59;2068793;28;1754;-67
2024/02/15 02:51:15;;;;;;;;;;;;;;;19.29;48.88;101207.69;2068624;28;1963;-67
2024/02/15 02:52:17;;;;;;;;;;;;;;;19.30;48.87;101215.69;2069885;28;2095;-67
2024/02/15 02:53:18;;;;;;;;;;;;;;;19.29;48.79;101207.69;2065543;28;2079;-67
2024/02/15 02:54:19;;;;;;;;;;;;;;;19.30;48.87;101214.94;2068974;28;2176;-67
2024/02/15 02:55:22;;;;;;;;;;;;;;;19.29;48.76;101216.31;2069431;28;1721;-67
2024/02/15 02:56:24;;;;;;;;;;;;;;;19.27;48.89;101208.34;2070090;28;1916;-67
2024/02/15 02:57:25;;;;;;;;;;;;;;;19.29;48.91;101211.31;2067337;28;2106;-67
2024/02/15 02:58:26;;;;;;;;;;;;;;;19.29;48.87;101213.44;2069194;28;1642;-66
2024/02/15 02:59:28;;;;;;;;;;;;;;;19.28;48.80;101203.34;2066968;28;1971;-66
2024/02/15 03:00:29;;;;;;;;;;;;;;;19.29;48.76;101213.44;2069856;28;6174;-67
2024/02/15 03:01:30;;;;;;;;;;;;;;;19.28;48.96;101212.69;2066681;28;2316;-67
2024/02/15 03:02:32;;;;;;;;;;;;;;;19.28;48.86;101211.94;2067870;28;2007;-67
2024/02/15 03:03:34;;;;;;;;;;;;;;;19.28;48.84;101217.69;2069341;28;2064;-66
2024/02/15 03:04:35;;;;;;;;;;;;;;;19.27;48.85;101211.22;2068235;28;2424;-67
2024/02/15 03:05:37;;;;;;;;;;;;;;;19.27;48.83;101216.94;2072876;28;1721;-68
2024/02/15 03:06:42;;;;;;;;;;;;;;;19.28;48.84;101214.81;2067654;28;2154;-67
2024/02/15 03:07:44;;;;;;;;;;;;;;;19.28;48.84;101209.06;2064873;28;2071;-67
2024/02/15 03:08:45;;;;;;;;;;;;;;;19.26;48.88;101206.81;2067465;28;1952;-66
2024/02/15 03:09:47;;;;;;;;;;;;;;;19.27;48.87;101210.47;2071180;28;2251;-67
2024/02/15 03:10:49;;;;;;;;;;;;;;;19.26;48.88;101212.56;2068602;28;1709;-68
2024/02/15 03:11:50;;;;;;;;;;;;;;;19.27;48.77;101213.34;2067484;28;2015;-66
2024/02/15 03:12:52;;;;;;;;;;;;;;;19.27;48.88;101210.47;2067236;28;2068;-66
2024/02/15 03:13:53;;;;;;;;;;;;;;;19.26;48.90;101212.56;2070673;28;2527;-67
2024/02/15 03:14:55;;;;;;;;;;;;;;;19.26;48.81;101209.69;2069245;28;2070;-67
2024/02/15 03:15:56;;;;;;;;;;;;;;;19.25;48.86;101208.97;2066074;28;2298;-67
2024/02/15 03:16:58;;;;;;;;;;;;;;;19.24;48.93;101201.75;2073427;28;2050;-66
2024/02/15 03:17:59;;;;;;;;;;;;;;;19.26;48.86;101203.97;2068539;28;2098;-67
2024/02/15 03:19:04;;;;;;;;;;;;;;;19.25;48.88;101208.97;2064488;28;2258;-67
2024/02/15 03:20:20;;;;;;;;;;;;;;;19.27;48.87;101213.34;2069251;28;2030;-67
2024/02/15 03:21:21;;;;;;;;;;;;;;;19.25;48.86;101208.97;2067922;28;1733;-67
2024/02/15 03:22:25;;;;;;;;;;;;;;;19.25;48.95;101214.69;2067378;28;2121;-67
2024/02/15 03:23:26;;;;;;;;;;;;;;;19.26;48.93;101212.56;2066374;28;1930;-67
2024/02/15 03:24:27;;;;;;;;;;;;;;;19.25;48.81;101203.22;2068849;28;2015;-67
2024/02/15 03:25:29;;;;;;;;;;;;;;;19.24;48.97;101210.34;2068772;28;2055;-67
2024/02/15 03:26:36;;;;;;;;;;;;;;;19.24;49.03;101210.34;2068773;28;2098;-67
2024/02/15 03:27:38;;;;;;;;;;;;;;;19.24;48.95;101213.22;2069159;28;2111;-67
2024/02/15 03:28:39;;;;;;;;;;;;;;;19.25;48.95;101211.09;2068698;28;2495;-66
2024/02/15 03:29:41;;;;;;;;;;;;;;;19.24;48.88;101213.22;2067282;28;1919;-67
2024/02/15 03:30:45;;;;;;;;;;;;;;;19.24;48.85;101212.44;2069514;28;6095;-67
2024/02/15 03:31:48;;;;;;;;;;;;;;;19.25;48.86;101213.97;2067862;28;2075;-67
2024/02/15 03:32:50;;;;;;;;;;;;;;;19.24;48.80;101212.44;2072116;28;2038;-67
2024/02/15 03:33:54;;;;;;;;;;;;;;;19.24;48.82;101213.22;2070110;28;2102;-67
2024/02/15 03:34:55;;;;;;;;;;;;;;;19.24;48.89;101210.34;2067799;28;2121;-67
2024/02/15 03:35:59;;;;;;;;;;;;;;;19.23;48.89;101211.72;2072174;28;2077;-67
2024/02/15 03:37:03;;;;;;;;;;;;;;;19.24;48.95;101216.09;2070830;28;2316;-67
2024/02/15 03:38:06;;;;;;;;;;;;;;;19.24;48.87;101207.47;2070410;28;1697;-67
2024/02/15 03:39:08;;;;;;;;;;;;;;;19.23;48.85;101205.97;2071652;28;1845;-66
2024/02/15 03:40:10;;;;;;;;;;;;;;;19.22;48.89;101198.00;2070689;28;1836;-67
2024/02/15 03:41:11;;;;;;;;;;;;;;;19.24;48.80;101215.31;2071151;28;2452;-67
2024/02/15 03:42:12;;;;;;;;;;;;;;;19.23;49.05;101211.72;2071854;28;1782;-67
2024/02/15 03:43:14;;;;;;;;;;;;;;;19.22;48.93;101215.22;2068501;28;2383;-67
2024/02/15 03:44:18;;;;;;;;;;;;;;;19.23;48.87;101208.84;2069663;28;2116;-67
2024/02/15 03:45:20;;;;;;;;;;;;;;;19.22;48.84;101204.50;2067833;28;2070;-67
2024/02/15 03:46:23;;;;;;;;;;;;;;;19.23;48.76;101210.97;2070997;28;2082;-66
2024/02/15 03:47:25;;;;;;;;;;;;;;;19.22;48.87;101204.50;2069676;28;2175;-67
2024/02/15 03:48:26;;;;;;;;;;;;;;;19.23;48.87;101205.22;2069042;28;1780;-67
2024/02/15 03:49:27;;;;;;;;;;;;;;;19.23;48.80;101217.44;2070851;28;1763;-67
2024/02/15 03:50:32;;;;;;;;;;;;;;;19.24;48.98;101216.09;2069129;28;1976;-66
2024/02/15 03:51:34;;;;;;;;;;;;;;;19.24;48.85;101210.34;2070830;28;2177;-67
2024/02/15 03:52:36;;;;;;;;;;;;;;;19.24;48.71;101213.22;2070471;28;2101;-66
2024/02/15 03:53:37;;;;;;;;;;;;;;;19.24;48.70;101207.47;2070028;28;1974;-67
2024/02/15 03:54:39;;;;;;;;;;;;;;;19.25;48.57;101208.97;2071717;28;1963;-67
2024/02/15 03:55:40;;;;;;;;;;;;;;;19.25;48.48;101214.69;2070965;28;2131;-67
2024/02/15 03:56:51;;;;;;;;;;;;;;;19.27;48.61;101216.22;2067923;28;2042;-67
2024/02/15 03:57:55;;;;;;;;;;;;;;;19.28;48.46;101214.81;2066506;28;2136;-67
2024/02/15 03:58:57;;;;;;;;;;;;;;;19.29;48.51;101210.56;2072421;28;1677;-67
2024/02/15 03:59:58;;;;;;;;;;;;;;;19.30;48.51;101214.94;2069429;28;1940;-67
2024/02/15 04:01:00;;;;;;;;;;;;;;;19.31;48.78;101222.16;2068718;28;6167;-67
2024/02/15 04:02:03;;;;;;;;;;;;;;;19.30;48.75;101215.69;2067741;28;2126;-67
2024/02/15 04:03:05;;;;;;;;;;;;;;;19.32;48.70;101212.91;2072189;28;1745;-67
2024/02/15 04:04:06;;;;;;;;;;;;;;;19.33;48.83;101219.41;2069925;28;2136;-67
2024/02/15 04:05:09;;;;;;;;;;;;;;;19.34;48.81;101212.31;2068734;28;2150;-67
2024/02/15 04:06:11;;;;;;;;;;;;;;;19.34;48.78;101212.31;2069871;28;2155;-66
2024/02/15 04:07:14;;;;;;;;;;;;;;;19.35;48.62;101222.41;2070771;28;1994;-67
2024/02/15 04:08:16;;;;;;;;;;;;;;;19.35;48.57;101216.66;2068882;28;2105;-66
2024/02/15 04:09:18;;;;;;;;;;;;;;;19.35;48.63;101210.91;2070325;28;1891;-68
2024/02/15 04:10:19;;;;;;;;;;;;;;;19.35;48.71;101202.28;2071186;28;2105;-67
2024/02/15 04:11:20;;;;;;;;;;;;;;;19.35;48.71;101216.66;2069546;28;1779;-67
2024/02/15 04:12:22;;;;;;;;;;;;;;;19.35;48.66;101210.91;2067785;28;2050;-67
2024/02/15 04:13:24;;;;;;;;;;;;;;;19.35;48.68;101216.66;2070781;28;1713;-68
2024/02/15 04:14:25;;;;;;;;;;;;;;;19.36;48.58;101215.28;2069140;28;2136;-67
2024/02/15 04:15:27;;;;;;;;;;;;;;;19.36;48.62;101209.53;2069087;28;2120;-67
2024/02/15 04:16:30;;;;;;;;;;;;;;;19.35;48.70;101220.25;2070197;28;2235;-67
2024/02/15 04:17:34;;;;;;;;;;;;;;;19.35;48.70;101216.66;2070196;28;1705;-67
2024/02/15 04:18:37;;;;;;;;;;;;;;;19.36;48.75;101226.78;2070659;28;2073;-67
2024/02/15 04:19:39;;;;;;;;;;;;;;;19.35;48.75;101219.53;2071582;28;1816;-67
2024/02/15 04:20:45;;;;;;;;;;;;;;;19.36;48.66;101223.91;2072035;28;1704;-67
2024/02/15 04:21:47;;;;;;;;;;;;;;;19.36;48.83;101218.16;2067423;28;1923;-67
2024/02/15 04:22:50;;;;;;;;;;;;;;;19.36;48.63;101226.78;2068603;28;1904;-67
2024/02/15 04:23:51;;;;;;;;;;;;;;;19.35;48.70;101223.13;2065271;28;1939;-67
2024/02/15 04:24:53;;;;;;;;;;;;;;;19.36;48.66;101221.78;2069232;28;2082;-66
2024/02/15 04:25:54;;;;;;;;;;;;;;;19.36;48.69;101218.16;2070413;28;2435;-67
2024/02/15 04:26:55;;;;;;;;;;;;;;;19.35;48.75;101222.41;2071826;28;1701;-62
2024/02/15 04:27:59;;;;;;;;;;;;;;;19.35;48.59;101211.66;2071197;28;2177;-67
2024/02/15 04:29:00;;;;;;;;;;;;;;;19.36;48.72;101218.16;2071076;28;2094;-65
2024/02/15 04:30:02;;;;;;;;;;;;;;;19.36;48.70;101212.41;2069138;28;6275;-70
2024/02/15 04:31:08;;;;;;;;;;;;;;;19.36;48.77;101218.16;2067198;28;2149;-67
2024/02/15 04:32:10;;;;;;;;;;;;;;;19.36;48.69;101218.91;2069602;28;1646;-67
2024/02/15 04:33:12;;;;;;;;;;;;;;;19.36;48.68;101215.28;2071701;28;1788;-67
2024/02/15 04:34:13;;;;;;;;;;;;;;;19.36;48.72;101223.91;2068568;28;2130;-66
2024/02/15 04:35:15;;;;;;;;;;;;;;;19.36;48.77;101213.16;2067703;28;2107;-67
2024/02/15 04:36:23;;;;;;;;;;;;;;;19.35;48.70;101216.66;2069056;28;1646;-66
2024/02/15 04:37:28;;;;;;;;;;;;;;;19.35;48.75;101216.66;2066705;28;1825;-67
2024/02/15 04:38:30;;;;;;;;;;;;;;;19.35;48.74;101210.91;2068725;28;1995;-67
2024/02/15 04:39:31;;;;;;;;;;;;;;;19.36;48.76;101215.28;2068517;28;1721;-67
2024/02/15 04:40:32;;;;;;;;;;;;;;;19.35;48.76;101208.03;2071570;28;1812;-67
2024/02/15 04:41:34;;;;;;;;;;;;;;;19.34;48.68;101215.91;2069322;28;1970;-67
2024/02/15 04:42:39;;;;;;;;;;;;;;;19.34;48.79;101215.91;2068663;28;2492;-67
2024/02/15 04:43:42;;;;;;;;;;;;;;;19.34;48.71;101209.44;2068468;28;2145;-66
2024/02/15 04:44:43;;;;;;;;;;;;;;;19.34;48.67;101215.16;2071229;28;1812;-67
2024/02/15 04:45:45;;;;;;;;;;;;;;;19.34;48.70;101221.66;2070253;28;2109;-67
2024/02/15 04:46:47;;;;;;;;;;;;;;;19.33;48.72;101214.41;2073488;28;1777;-66
2024/02/15 04:47:52;;;;;;;;;;;;;;;19.33;48.58;101216.53;2071444;28;1752;-66
2024/02/15 04:48:55;;;;;;;;;;;;;;;19.33;48.68;101217.28;2071432;28;1714;-68
2024/02/15 04:49:57;;;;;;;;;;;;;;;19.33;48.70;101213.66;2068146;28;2086;-67
2024/02/15 04:50:59;;;;;;;;;;;;;;;19.33;48.73;101225.16;2069098;28;1964;-67
2024/02/15 04:52:04;;;;;;;;;;;;;;;19.33;48.78;101213.66;2069592;28;1736;-67
2024/02/15 04:53:07;;;;;;;;;;;;;;;19.33;48.67;101213.66;2069012;28;2077;-67
2024/02/15 04:54:08;;;;;;;;;;;;;;;19.32;48.78;101212.19;2069785;28;2091;-67
2024/02/15 04:55:10;;;;;;;;;;;;;;;19.32;48.71;101217.94;2071615;28;2043;-67
2024/02/15 04:56:16;;;;;;;;;;;;;;;19.32;48.73;101217.94;2069280;28;1662;-68
2024/02/15 04:57:17;;;;;;;;;;;;;;;19.32;48.76;101217.94;2066851;28;2197;-66
2024/02/15 04:58:19;;;;;;;;;;;;;;;19.32;48.78;101217.94;2067014;28;2157;-67
2024/02/15 04:59:21;;;;;;;;;;;;;;;19.32;48.79;101215.78;2067770;28;2087;-67
2024/02/15 05:00:25;;;;;;;;;;;;;;;19.32;48.80;101215.06;2069834;28;6119;-67
2024/02/15 05:01:27;;;;;;;;;;;;;;;19.31;48.82;101216.41;2070662;28;1946;-67
2024/02/15 05:02:28;;;;;;;;;;;;;;;19.32;48.86;101212.19;2070989;28;2072;-67
2024/02/15 05:03:29;;;;;;;;;;;;;;;19.31;48.89;101227.91;2070104;28;1849;-67
2024/02/15 05:04:35;;;;;;;;;;;;;;;19.31;48.87;101210.66;2068295;28;1780;-67
2024/02/15 05:05:38;;;;;;;;;;;;;;;19.31;49.00;101217.19;2068345;28;1760;-66
2024/02/15 05:06:40;;;;;;;;;;;;;;;19.32;49.05;101217.94;2068415;28;2034;-67
2024/02/15 05:07:43;;;;;;;;;;;;;;;19.30;49.01;101221.41;2070128;28;1980;-67
2024/02/15 05:08:44;;;;;;;;;;;;;;;19.30;48.82;101212.81;2071074;28;2113;-67
2024/02/15 05:09:46;;;;;;;;;;;;;;;19.31;49.00;101210.66;2071255;28;1748;-67
2024/02/15 05:10:47;;;;;;;;;;;;;;;19.30;48.98;101203.44;2071897;28;1935;-67
2024/02/15 05:11:49;;;;;;;;;;;;;;;19.31;49.00;101210.66;2066318;28;2113;-67
2024/02/15 05:12:50;;;;;;;;;;;;;;;19.30;48.99;101209.94;2069880;28;2039;-67
2024/02/15 05:13:52;;;;;;;;;;;;;;;19.30;49.05;101214.94;2070931;28;1848;-66
2024/02/15 05:14:53;;;;;;;;;;;;;;;19.30;49.04;101212.06;2069066;28;2062;-67
2024/02/15 05:15:55;;;;;;;;;;;;;;;19.29;49.01;101213.44;2067698;28;2165;-66
2024/02/15 05:16:56;;;;;;;;;;;;;;;19.30;49.13;101212.06;2068242;28;2208;-67
2024/02/15 05:17:58;;;;;;;;;;;;;;;19.30;49.01;101214.94;2069443;28;2097;-67
2024/02/15 05:18:59;;;;;;;;;;;;;;;19.30;49.01;101221.41;2068317;28;1847;-67
2024/02/15 05:20:09;;;;;;;;;;;;;;;19.30;49.06;101217.81;2071357;28;2038;-66
2024/02/15 05:21:11;;;;;;;;;;;;;;;19.30;49.15;101214.94;2069253;28;1903;-67
2024/02/15 05:22:15;;;;;;;;;;;;;;;19.29;49.18;101219.16;2067922;28;1998;-67
2024/02/15 05:23:18;;;;;;;;;;;;;;;19.30;48.96;101223.56;2068186;28;2043;-67
2024/02/15 05:24:19;;;;;;;;;;;;;;;19.29;49.15;101225.69;2069784;28;1634;-67